If you wish to contribute or participate in the discussions about articles you are invited to join SKYbrary as a registered user

 Actions

Blackpool Airport

From SKYbrary Wiki

EGNH /
Revision as of 07:03, 1 July 2020 by Admin (talk | contribs) (Text replacement - "{{Show_Airportmaps}} " to "{{ShowAirportMap|TerrainZoom=10|AirportLayoutZoom=13}} ")
(diff) ← Older revision | Latest revision (diff) | Newer revision → (diff)
Airport
ICAO: EGNH – IATA: BLK
Summary
Name Blackpool Airport
Region Europe
Territory United Kingdom GB.gif
Location St Annes-on-the-Sea, Lancashire, England
Serving Blackpool
Elevation 10.363 m
34 ft
34 ft10.363 m
Coordinates 53° 46' 17.00" N, 3° 1' 41.99" W
Runways
Designator Length Width Surface ROPS
7/25 799 m2,621.391 ft
30 m98.425 ft
ASP no/no
10/28 1869 m6,131.89 ft
46 m150.919 ft
ASP yes/yes
13/31 1077 m3,533.465 ft
23 m75.459 ft
ASP yes/yes


METAR
Observation EGNH 240850Z 19010KT 9999 -RA FEW012 BKN025 11/09 Q1012
Station Blackpool Airport
Date/Time 24 November 2020 08:50:00
Wind direction 190°
Wind speed 10 kts
Lowest cloud amount few clouds
Temperature 11°C
Dew point 9°C
Humidity 87%
QNH 1012 hPa
Weather condition light rain

Privately owned airport near Blackpool, Lancashire, England.

Climatology

Temperate Marine climate/Oceanic climate (Köppen climate classification Cfb).

Maps

Terrain

Loading map...

Airport Layout

Loading map...


Accidents & Serious Incidents at or in vicinity of EGNH

None on SKYbrary